General Aviation Weather

Text Reports

Enter one or more of the following location identifiers separated by a space:

Zip Code, Four-Character ICAO or Three-Character IATA airport codes.

METAR - Aviation Routine Weather Report
KCBK - Colby, Kansas
Updated at 1:55 PM GMT on July 25, 2014 (8:55 AM CDT):
METAR KCBK 251355Z AUTO 30005KT 10SM CLR 27/16 A2991 RMK AO2
TAF - Terminal Area Forecast
KCBK - Colby, Kansas
Updated at 1:55 PM GMT on July 25, 2014 (8:55 AM CDT):
No TAF is currently available for this location.
Decoded:
No decoded TAF is available.
PIREP - Pilot Weather Report
KCBK - Colby, Kansas
Updated at 1:55 PM GMT on July 25, 2014 (8:55 AM CDT):
No PIREP is currently available for this location.
AIRMET - Airmens Meteorological Information
KCBK - Colby, Kansas
Updated at 1:55 PM GMT on July 25, 2014 (8:55 AM CDT):
No AIRMET is currently available for this location.
SIGMET - Significant Meteorological Information
KCBK - Colby, Kansas
Updated at 1:55 PM GMT on July 25, 2014 (8:55 AM CDT):
No SIGMET is currently available for this location.
NOTAM - Notice to Airmen
KCBK - Colby, Kansas
Updated at 1:55 PM GMT on July 25, 2014 (8:55 AM CDT):
No NOTAM is currently available for this location.
Forecast Area
KCBK - Colby, Kansas
Updated at 1:55 PM GMT on July 25, 2014 (8:55 AM CDT):
No NOTAM is currently available for this location.
Aviation Weather Maps